Aviation Digital Data Service (ADDS)

Output produced by METARs form (0801 UTC 29 August 2014)
found at http://aviationweather.gov/adds/metars/
 
KCRG 290532Z 2906/3006 VRB03KT P6SM SKC 
     FM291600 12009KT P6SM SCT040 SCT070 
     FM292200 12008KT P6SM SCT030 SCT070 BKN250 
     FM300000 13007KT P6SM SCT030 SCT070 BKN250